sensor_id;sensor_type;location;lat;lon;timestamp;P1;durP1;ratioP1;P2;durP2;ratioP2
18322;SDS011;9287;49.456;11.064;2024-01-15T00:01:54;54.77;;;29.73;;
18322;SDS011;9287;49.456;11.064;2024-01-15T00:04:26;52.97;;;29.90;;
18322;SDS011;9287;49.456;11.064;2024-01-15T00:06:54;55.43;;;30.37;;
18322;SDS011;9287;49.456;11.064;2024-01-15T00:09:25;53.17;;;29.20;;
18322;SDS011;9287;49.456;11.064;2024-01-15T00:11:54;52.77;;;30.30;;
18322;SDS011;9287;49.456;11.064;2024-01-15T00:14:29;51.20;;;28.50;;
18322;SDS011;9287;49.456;11.064;2024-01-15T00:17:01;53.33;;;29.37;;
18322;SDS011;9287;49.456;11.064;2024-01-15T00:19:34;54.77;;;28.27;;
18322;SDS011;9287;49.456;11.064;2024-01-15T00:22:03;54.40;;;27.77;;
18322;SDS011;9287;49.456;11.064;2024-01-15T00:24:32;49.27;;;27.43;;
18322;SDS011;9287;49.456;11.064;2024-01-15T00:27:01;55.80;;;29.47;;
18322;SDS011;9287;49.456;11.064;2024-01-15T00:29:29;51.83;;;27.73;;
18322;SDS011;9287;49.456;11.064;2024-01-15T00:32:00;55.00;;;30.57;;
18322;SDS011;9287;49.456;11.064;2024-01-15T00:34:31;56.17;;;28.87;;
18322;SDS011;9287;49.456;11.064;2024-01-15T00:37:01;54.17;;;28.13;;
18322;SDS011;9287;49.456;11.064;2024-01-15T00:39:34;58.20;;;30.87;;
18322;SDS011;9287;49.456;11.064;2024-01-15T00:42:03;58.33;;;27.87;;
18322;SDS011;9287;49.456;11.064;2024-01-15T00:44:33;54.27;;;28.60;;
18322;SDS011;9287;49.456;11.064;2024-01-15T00:47:03;52.53;;;28.37;;
18322;SDS011;9287;49.456;11.064;2024-01-15T00:49:33;54.83;;;29.10;;
18322;SDS011;9287;49.456;11.064;2024-01-15T00:52:04;50.83;;;29.13;;
18322;SDS011;9287;49.456;11.064;2024-01-15T00:54:41;51.80;;;27.63;;
18322;SDS011;9287;49.456;11.064;2024-01-15T00:57:10;51.27;;;27.47;;
18322;SDS011;9287;49.456;11.064;2024-01-15T00:59:41;54.53;;;29.00;;
18322;SDS011;9287;49.456;11.064;2024-01-15T01:02:09;51.90;;;28.47;;
18322;SDS011;9287;49.456;11.064;2024-01-15T01:04:38;53.17;;;28.87;;
18322;SDS011;9287;49.456;11.064;2024-01-15T01:07:06;52.17;;;28.23;;
18322;SDS011;9287;49.456;11.064;2024-01-15T01:09:35;51.37;;;26.87;;
18322;SDS011;9287;49.456;11.064;2024-01-15T01:12:06;52.10;;;29.10;;
18322;SDS011;9287;49.456;11.064;2024-01-15T01:14:36;53.23;;;29.70;;
18322;SDS011;9287;49.456;11.064;2024-01-15T01:17:04;51.67;;;28.37;;
18322;SDS011;9287;49.456;11.064;2024-01-15T01:19:33;57.63;;;29.13;;
18322;SDS011;9287;49.456;11.064;2024-01-15T01:22:02;51.93;;;27.23;;
18322;SDS011;9287;49.456;11.064;2024-01-15T01:24:32;50.27;;;26.93;;
18322;SDS011;9287;49.456;11.064;2024-01-15T01:27:04;50.63;;;27.53;;
18322;SDS011;9287;49.456;11.064;2024-01-15T01:29:35;51.43;;;28.93;;
18322;SDS011;9287;49.456;11.064;2024-01-15T01:32:03;53.87;;;27.37;;
18322;SDS011;9287;49.456;11.064;2024-01-15T01:34:39;48.97;;;27.33;;
18322;SDS011;9287;49.456;11.064;2024-01-15T01:37:10;53.50;;;28.17;;
18322;SDS011;9287;49.456;11.064;2024-01-15T01:39:41;51.93;;;27.73;;
18322;SDS011;9287;49.456;11.064;2024-01-15T01:42:15;52.57;;;28.53;;
18322;SDS011;9287;49.456;11.064;2024-01-15T01:44:43;54.03;;;28.37;;
18322;SDS011;9287;49.456;11.064;2024-01-15T01:47:15;51.50;;;27.80;;
18322;SDS011;9287;49.456;11.064;2024-01-15T01:49:47;47.73;;;26.63;;
18322;SDS011;9287;49.456;11.064;2024-01-15T01:52:18;48.60;;;26.30;;
18322;SDS011;9287;49.456;11.064;2024-01-15T01:54:50;49.80;;;26.83;;
18322;SDS011;9287;49.456;11.064;2024-01-15T01:57:24;53.53;;;27.57;;
18322;SDS011;9287;49.456;11.064;2024-01-15T01:59:52;50.90;;;27.53;;
18322;SDS011;9287;49.456;11.064;2024-01-15T02:02:25;51.17;;;25.87;;
18322;SDS011;9287;49.456;11.064;2024-01-15T02:04:55;49.83;;;25.10;;
18322;SDS011;9287;49.456;11.064;2024-01-15T02:07:26;47.63;;;24.83;;
18322;SDS011;9287;49.456;11.064;2024-01-15T02:09:56;48.70;;;24.77;;
18322;SDS011;9287;49.456;11.064;2024-01-15T02:12:28;48.73;;;26.07;;
18322;SDS011;9287;49.456;11.064;2024-01-15T02:14:56;46.13;;;24.43;;
18322;SDS011;9287;49.456;11.064;2024-01-15T02:17:26;47.90;;;26.07;;
18322;SDS011;9287;49.456;11.064;2024-01-15T02:19:54;45.87;;;24.10;;
18322;SDS011;9287;49.456;11.064;2024-01-15T02:22:24;49.03;;;24.23;;
18322;SDS011;9287;49.456;11.064;2024-01-15T02:24:57;44.73;;;23.93;;
18322;SDS011;9287;49.456;11.064;2024-01-15T02:27:28;45.37;;;23.83;;
18322;SDS011;9287;49.456;11.064;2024-01-15T02:29:57;42.87;;;22.13;;
18322;SDS011;9287;49.456;11.064;2024-01-15T02:32:26;39.47;;;21.03;;
18322;SDS011;9287;49.456;11.064;2024-01-15T02:34:57;42.17;;;21.60;;
18322;SDS011;9287;49.456;11.064;2024-01-15T02:37:29;43.90;;;22.63;;
18322;SDS011;9287;49.456;11.064;2024-01-15T02:40:00;42.00;;;22.53;;
18322;SDS011;9287;49.456;11.064;2024-01-15T02:42:30;48.83;;;23.00;;
18322;SDS011;9287;49.456;11.064;2024-01-15T02:44:59;40.77;;;20.83;;
18322;SDS011;9287;49.456;11.064;2024-01-15T02:47:28;40.13;;;20.40;;
18322;SDS011;9287;49.456;11.064;2024-01-15T02:49:57;36.40;;;19.70;;
18322;SDS011;9287;49.456;11.064;2024-01-15T02:52:28;42.13;;;20.73;;
18322;SDS011;9287;49.456;11.064;2024-01-15T02:55:00;42.80;;;22.50;;
18322;SDS011;9287;49.456;11.064;2024-01-15T02:57:34;40.00;;;20.10;;
18322;SDS011;9287;49.456;11.064;2024-01-15T03:00:07;38.80;;;20.00;;
18322;SDS011;9287;49.456;11.064;2024-01-15T03:02:36;36.53;;;20.80;;
18322;SDS011;9287;49.456;11.064;2024-01-15T03:05:11;38.23;;;20.93;;
18322;SDS011;9287;49.456;11.064;2024-01-15T03:07:44;41.80;;;20.97;;
18322;SDS011;9287;49.456;11.064;2024-01-15T03:10:19;40.97;;;20.07;;
18322;SDS011;9287;49.456;11.064;2024-01-15T03:12:49;43.60;;;22.20;;
18322;SDS011;9287;49.456;11.064;2024-01-15T03:15:19;37.43;;;19.67;;
18322;SDS011;9287;49.456;11.064;2024-01-15T03:17:48;38.77;;;19.37;;
18322;SDS011;9287;49.456;11.064;2024-01-15T03:20:16;36.93;;;19.40;;
18322;SDS011;9287;49.456;11.064;2024-01-15T03:22:50;38.27;;;19.07;;
18322;SDS011;9287;49.456;11.064;2024-01-15T03:25:23;32.83;;;18.30;;
18322;SDS011;9287;49.456;11.064;2024-01-15T03:27:56;36.07;;;19.13;;
18322;SDS011;9287;49.456;11.064;2024-01-15T03:30:25;35.47;;;19.57;;
18322;SDS011;9287;49.456;11.064;2024-01-15T03:32:58;35.20;;;19.57;;
18322;SDS011;9287;49.456;11.064;2024-01-15T03:35:29;34.13;;;18.63;;
18322;SDS011;9287;49.456;11.064;2024-01-15T03:37:59;34.53;;;18.80;;
18322;SDS011;9287;49.456;11.064;2024-01-15T03:40:31;32.80;;;18.13;;
18322;SDS011;9287;49.456;11.064;2024-01-15T03:43:00;32.23;;;18.53;;
18322;SDS011;9287;49.456;11.064;2024-01-15T03:45:28;33.87;;;17.43;;
18322;SDS011;9287;49.456;11.064;2024-01-15T03:47:57;33.20;;;18.03;;
18322;SDS011;9287;49.456;11.064;2024-01-15T03:50:27;37.70;;;19.00;;
18322;SDS011;9287;49.456;11.064;2024-01-15T03:52:56;33.37;;;16.73;;
18322;SDS011;9287;49.456;11.064;2024-01-15T03:55:26;33.33;;;17.63;;
18322;SDS011;9287;49.456;11.064;2024-01-15T03:57:57;31.40;;;15.97;;
18322;SDS011;9287;49.456;11.064;2024-01-15T04:00:25;28.20;;;16.97;;
18322;SDS011;9287;49.456;11.064;2024-01-15T04:02:54;30.70;;;16.93;;
18322;SDS011;9287;49.456;11.064;2024-01-15T04:05:24;31.97;;;17.03;;
18322;SDS011;9287;49.456;11.064;2024-01-15T04:07:52;30.53;;;16.40;;
18322;SDS011;9287;49.456;11.064;2024-01-15T04:10:21;36.70;;;16.97;;
18322;SDS011;9287;49.456;11.064;2024-01-15T04:12:51;32.40;;;17.63;;
18322;SDS011;9287;49.456;11.064;2024-01-15T04:15:21;26.97;;;14.73;;
18322;SDS011;9287;49.456;11.064;2024-01-15T04:17:51;29.37;;;16.80;;
18322;SDS011;9287;49.456;11.064;2024-01-15T04:20:23;29.60;;;16.53;;
18322;SDS011;9287;49.456;11.064;2024-01-15T04:22:53;29.10;;;16.50;;
18322;SDS011;9287;49.456;11.064;2024-01-15T04:25:22;29.90;;;16.07;;
18322;SDS011;9287;49.456;11.064;2024-01-15T04:27:51;29.17;;;15.47;;
18322;SDS011;9287;49.456;11.064;2024-01-15T04:30:20;28.57;;;15.93;;
18322;SDS011;9287;49.456;11.064;2024-01-15T04:32:55;25.80;;;15.77;;
18322;SDS011;9287;49.456;11.064;2024-01-15T04:35:23;27.73;;;15.93;;
18322;SDS011;9287;49.456;11.064;2024-01-15T04:37:55;31.83;;;17.53;;
18322;SDS011;9287;49.456;11.064;2024-01-15T04:40:25;30.70;;;15.80;;
18322;SDS011;9287;49.456;11.064;2024-01-15T04:42:56;29.87;;;16.63;;
18322;SDS011;9287;49.456;11.064;2024-01-15T04:45:27;25.87;;;15.53;;
18322;SDS011;9287;49.456;11.064;2024-01-15T04:47:56;28.33;;;16.10;;
18322;SDS011;9287;49.456;11.064;2024-01-15T04:50:26;31.10;;;16.37;;
18322;SDS011;9287;49.456;11.064;2024-01-15T04:52:57;29.77;;;15.93;;
18322;SDS011;9287;49.456;11.064;2024-01-15T04:55:26;33.77;;;16.60;;
18322;SDS011;9287;49.456;11.064;2024-01-15T04:57:57;30.80;;;16.63;;
18322;SDS011;9287;49.456;11.064;2024-01-15T05:00:29;31.00;;;16.87;;
18322;SDS011;9287;49.456;11.064;2024-01-15T05:02:57;30.90;;;16.17;;
18322;SDS011;9287;49.456;11.064;2024-01-15T05:05:29;31.27;;;15.83;;
18322;SDS011;9287;49.456;11.064;2024-01-15T05:08:06;28.63;;;15.40;;
18322;SDS011;9287;49.456;11.064;2024-01-15T05:10:36;34.27;;;16.37;;
18322;SDS011;9287;49.456;11.064;2024-01-15T05:13:04;31.70;;;16.80;;
18322;SDS011;9287;49.456;11.064;2024-01-15T05:15:41;26.73;;;15.70;;
18322;SDS011;9287;49.456;11.064;2024-01-15T05:18:09;29.77;;;15.97;;
18322;SDS011;9287;49.456;11.064;2024-01-15T05:20:39;33.37;;;17.33;;
18322;SDS011;9287;49.456;11.064;2024-01-15T05:23:08;29.10;;;15.30;;
18322;SDS011;9287;49.456;11.064;2024-01-15T05:25:41;31.37;;;16.87;;
18322;SDS011;9287;49.456;11.064;2024-01-15T05:28:09;28.93;;;16.60;;
18322;SDS011;9287;49.456;11.064;2024-01-15T05:30:42;31.83;;;15.73;;
18322;SDS011;9287;49.456;11.064;2024-01-15T05:33:12;28.07;;;15.37;;
18322;SDS011;9287;49.456;11.064;2024-01-15T05:35:40;29.13;;;15.00;;
18322;SDS011;9287;49.456;11.064;2024-01-15T05:38:15;26.40;;;14.97;;
18322;SDS011;9287;49.456;11.064;2024-01-15T05:40:49;26.27;;;13.90;;
18322;SDS011;9287;49.456;11.064;2024-01-15T05:43:21;25.83;;;15.23;;
18322;SDS011;9287;49.456;11.064;2024-01-15T05:45:53;26.97;;;15.23;;
18322;SDS011;9287;49.456;11.064;2024-01-15T05:48:26;27.40;;;14.77;;
18322;SDS011;9287;49.456;11.064;2024-01-15T05:50:56;29.80;;;14.93;;
18322;SDS011;9287;49.456;11.064;2024-01-15T05:53:27;29.67;;;14.87;;
18322;SDS011;9287;49.456;11.064;2024-01-15T05:55:56;22.07;;;13.67;;
18322;SDS011;9287;49.456;11.064;2024-01-15T05:58:27;24.73;;;13.37;;
18322;SDS011;9287;49.456;11.064;2024-01-15T06:01:00;26.20;;;12.90;;
18322;SDS011;9287;49.456;11.064;2024-01-15T06:03:29;24.73;;;14.03;;
18322;SDS011;9287;49.456;11.064;2024-01-15T06:06:05;26.07;;;13.77;;
18322;SDS011;9287;49.456;11.064;2024-01-15T06:09:02;24.17;;;13.10;;
18322;SDS011;9287;49.456;11.064;2024-01-15T06:11:35;26.60;;;14.83;;
18322;SDS011;9287;49.456;11.064;2024-01-15T06:14:09;24.60;;;14.20;;
18322;SDS011;9287;49.456;11.064;2024-01-15T06:16:47;24.33;;;14.53;;
18322;SDS011;9287;49.456;11.064;2024-01-15T06:19:15;25.23;;;13.53;;
18322;SDS011;9287;49.456;11.064;2024-01-15T06:21:44;25.40;;;13.47;;
18322;SDS011;9287;49.456;11.064;2024-01-15T06:24:12;26.53;;;14.43;;
18322;SDS011;9287;49.456;11.064;2024-01-15T06:26:41;23.43;;;13.80;;
18322;SDS011;9287;49.456;11.064;2024-01-15T06:29:09;25.63;;;13.13;;
18322;SDS011;9287;49.456;11.064;2024-01-15T06:31:38;20.63;;;13.57;;
18322;SDS011;9287;49.456;11.064;2024-01-15T06:34:08;23.53;;;13.93;;
18322;SDS011;9287;49.456;11.064;2024-01-15T06:36:36;28.20;;;15.20;;
18322;SDS011;9287;49.456;11.064;2024-01-15T06:39:04;24.00;;;14.50;;
18322;SDS011;9287;49.456;11.064;2024-01-15T06:41:32;26.60;;;14.70;;
18322;SDS011;9287;49.456;11.064;2024-01-15T06:44:01;26.73;;;15.43;;
18322;SDS011;9287;49.456;11.064;2024-01-15T06:46:30;28.23;;;16.13;;
18322;SDS011;9287;49.456;11.064;2024-01-15T06:49:03;30.23;;;16.20;;
18322;SDS011;9287;49.456;11.064;2024-01-15T06:51:33;28.50;;;16.17;;
18322;SDS011;9287;49.456;11.064;2024-01-15T06:54:01;29.87;;;15.67;;
18322;SDS011;9287;49.456;11.064;2024-01-15T06:56:29;30.33;;;16.73;;
18322;SDS011;9287;49.456;11.064;2024-01-15T06:58:57;28.83;;;16.07;;
18322;SDS011;9287;49.456;11.064;2024-01-15T07:01:25;26.93;;;14.17;;
18322;SDS011;9287;49.456;11.064;2024-01-15T07:03:53;25.37;;;15.43;;
18322;SDS011;9287;49.456;11.064;2024-01-15T07:06:22;32.37;;;15.93;;
18322;SDS011;9287;49.456;11.064;2024-01-15T07:08:51;25.07;;;13.97;;
18322;SDS011;9287;49.456;11.064;2024-01-15T07:11:19;25.43;;;13.77;;
18322;SDS011;9287;49.456;11.064;2024-01-15T07:13:47;24.33;;;13.83;;
18322;SDS011;9287;49.456;11.064;2024-01-15T07:16:14;27.40;;;14.23;;
18322;SDS011;9287;49.456;11.064;2024-01-15T07:19:02;25.70;;;14.77;;
18322;SDS011;9287;49.456;11.064;2024-01-15T07:21:30;23.87;;;14.33;;
18322;SDS011;9287;49.456;11.064;2024-01-15T07:24:00;28.27;;;13.60;;
18322;SDS011;9287;49.456;11.064;2024-01-15T07:26:27;26.93;;;13.60;;
18322;SDS011;9287;49.456;11.064;2024-01-15T07:28:57;26.10;;;15.27;;
18322;SDS011;9287;49.456;11.064;2024-01-15T07:31:25;29.27;;;14.37;;
18322;SDS011;9287;49.456;11.064;2024-01-15T07:33:53;24.30;;;14.40;;
18322;SDS011;9287;49.456;11.064;2024-01-15T07:36:22;25.93;;;14.17;;
18322;SDS011;9287;49.456;11.064;2024-01-15T07:38:53;24.43;;;14.97;;
18322;SDS011;9287;49.456;11.064;2024-01-15T07:41:22;27.73;;;15.77;;
18322;SDS011;9287;49.456;11.064;2024-01-15T07:43:50;24.50;;;15.00;;
18322;SDS011;9287;49.456;11.064;2024-01-15T07:46:18;25.57;;;14.53;;
18322;SDS011;9287;49.456;11.064;2024-01-15T07:48:45;23.47;;;14.77;;
18322;SDS011;9287;49.456;11.064;2024-01-15T07:51:14;28.20;;;15.03;;
18322;SDS011;9287;49.456;11.064;2024-01-15T07:53:42;27.77;;;14.73;;
18322;SDS011;9287;49.456;11.064;2024-01-15T07:56:09;27.30;;;15.97;;
18322;SDS011;9287;49.456;11.064;2024-01-15T07:58:38;26.43;;;15.10;;
18322;SDS011;9287;49.456;11.064;2024-01-15T08:01:06;25.30;;;15.50;;
18322;SDS011;9287;49.456;11.064;2024-01-15T08:03:35;26.17;;;14.37;;
18322;SDS011;9287;49.456;11.064;2024-01-15T08:06:03;22.10;;;14.07;;
18322;SDS011;9287;49.456;11.064;2024-01-15T08:08:32;25.60;;;13.73;;
18322;SDS011;9287;49.456;11.064;2024-01-15T08:11:00;24.13;;;14.60;;
18322;SDS011;9287;49.456;11.064;2024-01-15T08:13:28;25.67;;;14.27;;
18322;SDS011;9287;49.456;11.064;2024-01-15T08:15:58;23.33;;;14.00;;
18322;SDS011;9287;49.456;11.064;2024-01-15T08:18:29;24.70;;;14.13;;
18322;SDS011;9287;49.456;11.064;2024-01-15T08:20:57;25.03;;;14.30;;
18322;SDS011;9287;49.456;11.064;2024-01-15T08:23:25;22.33;;;12.90;;
18322;SDS011;9287;49.456;11.064;2024-01-15T08:25:54;22.77;;;13.20;;
18322;SDS011;9287;49.456;11.064;2024-01-15T08:28:22;24.23;;;13.43;;
18322;SDS011;9287;49.456;11.064;2024-01-15T08:30:50;22.27;;;12.63;;
18322;SDS011;9287;49.456;11.064;2024-01-15T08:33:19;21.60;;;13.10;;
18322;SDS011;9287;49.456;11.064;2024-01-15T08:35:48;21.00;;;12.67;;
18322;SDS011;9287;49.456;11.064;2024-01-15T08:38:16;21.40;;;12.83;;
18322;SDS011;9287;49.456;11.064;2024-01-15T08:40:44;20.00;;;11.53;;
18322;SDS011;9287;49.456;11.064;2024-01-15T08:43:11;22.07;;;12.03;;
18322;SDS011;9287;49.456;11.064;2024-01-15T08:45:40;18.60;;;11.63;;
18322;SDS011;9287;49.456;11.064;2024-01-15T08:48:07;19.87;;;11.97;;
18322;SDS011;9287;49.456;11.064;2024-01-15T08:50:37;19.07;;;12.50;;
18322;SDS011;9287;49.456;11.064;2024-01-15T08:53:05;21.73;;;12.53;;
18322;SDS011;9287;49.456;11.064;2024-01-15T08:55:33;21.23;;;12.23;;
18322;SDS011;9287;49.456;11.064;2024-01-15T08:58:01;20.67;;;11.60;;
18322;SDS011;9287;49.456;11.064;2024-01-15T09:00:29;16.70;;;10.87;;
18322;SDS011;9287;49.456;11.064;2024-01-15T09:02:57;21.60;;;12.37;;
18322;SDS011;9287;49.456;11.064;2024-01-15T09:05:25;17.83;;;10.93;;
18322;SDS011;9287;49.456;11.064;2024-01-15T09:07:55;19.77;;;11.60;;
18322;SDS011;9287;49.456;11.064;2024-01-15T09:10:23;19.13;;;11.00;;
18322;SDS011;9287;49.456;11.064;2024-01-15T09:12:51;19.13;;;11.63;;
18322;SDS011;9287;49.456;11.064;2024-01-15T09:15:19;19.33;;;10.93;;
18322;SDS011;9287;49.456;11.064;2024-01-15T09:17:47;19.80;;;11.37;;
18322;SDS011;9287;49.456;11.064;2024-01-15T09:20:15;22.77;;;13.43;;
18322;SDS011;9287;49.456;11.064;2024-01-15T09:22:44;23.50;;;12.30;;
18322;SDS011;9287;49.456;11.064;2024-01-15T09:25:14;23.03;;;13.10;;
18322;SDS011;9287;49.456;11.064;2024-01-15T09:27:41;19.03;;;11.67;;
18322;SDS011;9287;49.456;11.064;2024-01-15T09:30:10;22.23;;;12.40;;
18322;SDS011;9287;49.456;11.064;2024-01-15T09:32:39;21.67;;;12.00;;
18322;SDS011;9287;49.456;11.064;2024-01-15T09:35:07;19.13;;;10.83;;
18322;SDS011;9287;49.456;11.064;2024-01-15T09:37:35;20.17;;;12.23;;
18322;SDS011;9287;49.456;11.064;2024-01-15T09:40:14;19.17;;;11.27;;
18322;SDS011;9287;49.456;11.064;2024-01-15T09:42:43;18.23;;;11.23;;
18322;SDS011;9287;49.456;11.064;2024-01-15T09:45:12;16.13;;;10.47;;
18322;SDS011;9287;49.456;11.064;2024-01-15T09:47:41;18.30;;;10.37;;
18322;SDS011;9287;49.456;11.064;2024-01-15T09:50:12;24.03;;;11.13;;
18322;SDS011;9287;49.456;11.064;2024-01-15T09:52:42;17.23;;;11.37;;
18322;SDS011;9287;49.456;11.064;2024-01-15T09:55:11;18.53;;;10.80;;
18322;SDS011;9287;49.456;11.064;2024-01-15T09:57:41;16.37;;;10.20;;
18322;SDS011;9287;49.456;11.064;2024-01-15T10:00:11;18.67;;;10.33;;
18322;SDS011;9287;49.456;11.064;2024-01-15T10:02:40;19.27;;;10.47;;
18322;SDS011;9287;49.456;11.064;2024-01-15T10:05:08;17.90;;;10.77;;
18322;SDS011;9287;49.456;11.064;2024-01-15T10:07:36;16.73;;;10.20;;
18322;SDS011;9287;49.456;11.064;2024-01-15T10:10:06;15.53;;;10.10;;
18322;SDS011;9287;49.456;11.064;2024-01-15T10:12:35;17.43;;;9.70;;
18322;SDS011;9287;49.456;11.064;2024-01-15T10:15:06;17.40;;;10.70;;
18322;SDS011;9287;49.456;11.064;2024-01-15T10:17:37;20.57;;;10.37;;
18322;SDS011;9287;49.456;11.064;2024-01-15T10:20:07;14.17;;;10.10;;
18322;SDS011;9287;49.456;11.064;2024-01-15T10:22:39;20.03;;;10.73;;
18322;SDS011;9287;49.456;11.064;2024-01-15T10:25:09;18.33;;;10.77;;
18322;SDS011;9287;49.456;11.064;2024-01-15T10:27:38;18.43;;;10.67;;
18322;SDS011;9287;49.456;11.064;2024-01-15T10:30:09;17.63;;;10.03;;
18322;SDS011;9287;49.456;11.064;2024-01-15T10:32:37;15.63;;;10.13;;
18322;SDS011;9287;49.456;11.064;2024-01-15T10:35:06;18.63;;;11.70;;
18322;SDS011;9287;49.456;11.064;2024-01-15T10:37:35;14.87;;;10.20;;
18322;SDS011;9287;49.456;11.064;2024-01-15T10:40:03;16.67;;;9.70;;
18322;SDS011;9287;49.456;11.064;2024-01-15T10:42:32;14.40;;;8.77;;
18322;SDS011;9287;49.456;11.064;2024-01-15T10:45:00;14.83;;;9.50;;
18322;SDS011;9287;49.456;11.064;2024-01-15T10:47:30;14.33;;;9.23;;
18322;SDS011;9287;49.456;11.064;2024-01-15T10:49:58;14.77;;;9.27;;
18322;SDS011;9287;49.456;11.064;2024-01-15T10:52:27;14.23;;;9.50;;
18322;SDS011;9287;49.456;11.064;2024-01-15T10:54:55;15.00;;;9.63;;
18322;SDS011;9287;49.456;11.064;2024-01-15T10:57:26;15.87;;;9.80;;
18322;SDS011;9287;49.456;11.064;2024-01-15T10:59:55;14.43;;;9.47;;
18322;SDS011;9287;49.456;11.064;2024-01-15T11:02:25;14.63;;;9.47;;
18322;SDS011;9287;49.456;11.064;2024-01-15T11:04:55;14.77;;;9.43;;
18322;SDS011;9287;49.456;11.064;2024-01-15T11:07:23;13.57;;;8.77;;
18322;SDS011;9287;49.456;11.064;2024-01-15T11:09:55;14.70;;;10.20;;
18322;SDS011;9287;49.456;11.064;2024-01-15T11:12:25;17.17;;;10.13;;
18322;SDS011;9287;49.456;11.064;2024-01-15T11:14:52;13.10;;;9.57;;
18322;SDS011;9287;49.456;11.064;2024-01-15T11:20:33;16.03;;;9.83;;
18322;SDS011;9287;49.456;11.064;2024-01-15T11:23:02;15.43;;;10.27;;
18322;SDS011;9287;49.456;11.064;2024-01-15T11:25:34;14.33;;;9.90;;
18322;SDS011;9287;49.456;11.064;2024-01-15T11:28:05;15.77;;;9.17;;
18322;SDS011;9287;49.456;11.064;2024-01-15T11:30:33;16.00;;;10.10;;
18322;SDS011;9287;49.456;11.064;2024-01-15T11:33:03;17.20;;;9.90;;
18322;SDS011;9287;49.456;11.064;2024-01-15T11:35:51;16.83;;;10.63;;
18322;SDS011;9287;49.456;11.064;2024-01-15T11:38:28;17.73;;;10.40;;
18322;SDS011;9287;49.456;11.064;2024-01-15T11:40:56;16.77;;;10.53;;
18322;SDS011;9287;49.456;11.064;2024-01-15T11:43:26;16.23;;;10.07;;
18322;SDS011;9287;49.456;11.064;2024-01-15T11:45:54;19.23;;;11.67;;
18322;SDS011;9287;49.456;11.064;2024-01-15T11:48:22;17.33;;;11.10;;
18322;SDS011;9287;49.456;11.064;2024-01-15T11:51:08;16.63;;;11.57;;
18322;SDS011;9287;49.456;11.064;2024-01-15T11:53:40;16.13;;;9.53;;
18322;SDS011;9287;49.456;11.064;2024-01-15T11:56:14;15.37;;;10.43;;
18322;SDS011;9287;49.456;11.064;2024-01-15T11:58:43;16.73;;;9.53;;
18322;SDS011;9287;49.456;11.064;2024-01-15T12:01:12;14.60;;;10.47;;
18322;SDS011;9287;49.456;11.064;2024-01-15T12:03:40;14.87;;;9.00;;
18322;SDS011;9287;49.456;11.064;2024-01-15T12:06:11;13.60;;;8.63;;
18322;SDS011;9287;49.456;11.064;2024-01-15T12:08:40;13.60;;;9.40;;
18322;SDS011;9287;49.456;11.064;2024-01-15T12:11:10;14.83;;;9.33;;
18322;SDS011;9287;49.456;11.064;2024-01-15T12:13:41;11.83;;;8.73;;
18322;SDS011;9287;49.456;11.064;2024-01-15T12:16:10;14.40;;;8.77;;
18322;SDS011;9287;49.456;11.064;2024-01-15T12:18:39;16.33;;;9.57;;
18322;SDS011;9287;49.456;11.064;2024-01-15T12:21:10;14.03;;;9.53;;
18322;SDS011;9287;49.456;11.064;2024-01-15T12:23:39;16.20;;;10.27;;
18322;SDS011;9287;49.456;11.064;2024-01-15T12:26:07;15.07;;;9.10;;
18322;SDS011;9287;49.456;11.064;2024-01-15T12:28:36;15.67;;;9.40;;
18322;SDS011;9287;49.456;11.064;2024-01-15T12:31:05;14.03;;;8.93;;
18322;SDS011;9287;49.456;11.064;2024-01-15T12:33:33;14.70;;;10.17;;
18322;SDS011;9287;49.456;11.064;2024-01-15T12:36:02;13.17;;;8.57;;
18322;SDS011;9287;49.456;11.064;2024-01-15T12:38:32;14.00;;;9.20;;
18322;SDS011;9287;49.456;11.064;2024-01-15T12:41:00;14.80;;;9.17;;
18322;SDS011;9287;49.456;11.064;2024-01-15T12:43:28;14.53;;;8.43;;
18322;SDS011;9287;49.456;11.064;2024-01-15T12:45:56;15.30;;;8.97;;
18322;SDS011;9287;49.456;11.064;2024-01-15T12:48:25;12.53;;;8.67;;
18322;SDS011;9287;49.456;11.064;2024-01-15T12:50:53;14.47;;;9.47;;
18322;SDS011;9287;49.456;11.064;2024-01-15T12:53:22;15.27;;;8.83;;
18322;SDS011;9287;49.456;11.064;2024-01-15T12:55:51;14.83;;;9.50;;
18322;SDS011;9287;49.456;11.064;2024-01-15T12:58:19;11.93;;;7.93;;
18322;SDS011;9287;49.456;11.064;2024-01-15T13:00:47;10.47;;;7.10;;
18322;SDS011;9287;49.456;11.064;2024-01-15T13:03:16;11.40;;;8.30;;
18322;SDS011;9287;49.456;11.064;2024-01-15T13:05:44;13.57;;;8.30;;
18322;SDS011;9287;49.456;11.064;2024-01-15T13:08:13;12.77;;;7.73;;
18322;SDS011;9287;49.456;11.064;2024-01-15T13:10:41;15.30;;;9.00;;
18322;SDS011;9287;49.456;11.064;2024-01-15T13:13:10;10.87;;;7.23;;
18322;SDS011;9287;49.456;11.064;2024-01-15T13:15:39;11.50;;;7.37;;
18322;SDS011;9287;49.456;11.064;2024-01-15T13:18:07;10.93;;;7.93;;
18322;SDS011;9287;49.456;11.064;2024-01-15T13:20:36;11.80;;;7.37;;
18322;SDS011;9287;49.456;11.064;2024-01-15T13:23:03;11.67;;;8.30;;
18322;SDS011;9287;49.456;11.064;2024-01-15T13:25:32;10.30;;;7.63;;
18322;SDS011;9287;49.456;11.064;2024-01-15T13:28:02;8.83;;;6.30;;
18322;SDS011;9287;49.456;11.064;2024-01-15T13:30:33;13.60;;;8.23;;
18322;SDS011;9287;49.456;11.064;2024-01-15T13:33:01;10.13;;;7.70;;
18322;SDS011;9287;49.456;11.064;2024-01-15T13:35:31;10.87;;;7.30;;
18322;SDS011;9287;49.456;11.064;2024-01-15T13:37:59;10.53;;;7.07;;
18322;SDS011;9287;49.456;11.064;2024-01-15T13:40:27;12.27;;;8.07;;
18322;SDS011;9287;49.456;11.064;2024-01-15T13:42:55;10.97;;;8.30;;
18322;SDS011;9287;49.456;11.064;2024-01-15T13:45:23;14.10;;;8.67;;
18322;SDS011;9287;49.456;11.064;2024-01-15T13:47:52;13.07;;;7.93;;
18322;SDS011;9287;49.456;11.064;2024-01-15T13:50:20;10.63;;;7.80;;
18322;SDS011;9287;49.456;11.064;2024-01-15T13:52:51;11.40;;;7.60;;
18322;SDS011;9287;49.456;11.064;2024-01-15T13:55:18;13.00;;;7.20;;
18322;SDS011;9287;49.456;11.064;2024-01-15T13:57:47;12.80;;;8.30;;
18322;SDS011;9287;49.456;11.064;2024-01-15T14:00:15;11.03;;;7.97;;
18322;SDS011;9287;49.456;11.064;2024-01-15T14:02:46;13.27;;;8.23;;
18322;SDS011;9287;49.456;11.064;2024-01-15T14:05:16;11.70;;;7.30;;
18322;SDS011;9287;49.456;11.064;2024-01-15T14:07:44;11.27;;;8.00;;
18322;SDS011;9287;49.456;11.064;2024-01-15T14:10:12;11.97;;;7.97;;
18322;SDS011;9287;49.456;11.064;2024-01-15T14:12:40;10.70;;;6.83;;
18322;SDS011;9287;49.456;11.064;2024-01-15T14:15:09;12.00;;;7.37;;
18322;SDS011;9287;49.456;11.064;2024-01-15T14:17:37;10.37;;;7.67;;
18322;SDS011;9287;49.456;11.064;2024-01-15T14:20:06;11.43;;;7.83;;
18322;SDS011;9287;49.456;11.064;2024-01-15T14:22:37;11.40;;;7.53;;
18322;SDS011;9287;49.456;11.064;2024-01-15T14:25:06;9.20;;;7.27;;
18322;SDS011;9287;49.456;11.064;2024-01-15T14:27:34;10.27;;;7.07;;
18322;SDS011;9287;49.456;11.064;2024-01-15T14:30:03;10.23;;;7.03;;
18322;SDS011;9287;49.456;11.064;2024-01-15T14:32:34;11.47;;;7.27;;
18322;SDS011;9287;49.456;11.064;2024-01-15T14:35:03;11.37;;;7.67;;
18322;SDS011;9287;49.456;11.064;2024-01-15T14:37:32;10.77;;;7.20;;
18322;SDS011;9287;49.456;11.064;2024-01-15T14:40:01;12.17;;;7.80;;
18322;SDS011;9287;49.456;11.064;2024-01-15T14:42:30;10.30;;;7.10;;